Time;durP1;ratioP1;P1;durP2;ratioP2;P2;SDS_P1;SDS_P2;PMS_P1;PMS_P2;Temp;Humidity;BMP_temperature;BMP_pressure;BME280_temperature;BME280_humidity;BME280_pressure;Samples;Min_cycle;Max_cycle;Signal;HPM_P1;HPM_P2
2022/01/11 00:00:21;;;;;;;33.10;10.55;;;-0.90;99.90;;;;;;5079708;28;20020;-67
2022/01/11 00:02:54;;;;;;;30.73;9.40;;;-0.90;99.90;;;;;;5097522;28;20023;-67
2022/01/11 00:05:33;;;;;;;27.33;9.48;;;-1.00;99.90;;;;;;5079062;28;20096;-67
2022/01/11 00:08:01;;;;;;;22.55;8.35;;;-1.00;99.90;;;;;;5095198;28;20364;-67
2022/01/11 00:10:33;;;;;;;30.17;9.85;;;-1.00;99.90;;;;;;5083130;28;20031;-68
2022/01/11 00:13:02;;;;;;;26.83;9.07;;;-1.10;99.90;;;;;;5100542;28;20324;-68
2022/01/11 00:15:30;;;;;;;30.67;8.98;;;-1.10;99.90;;;;;;5065996;28;20107;-68
2022/01/11 00:17:57;;;;;;;41.22;11.27;;;-1.10;99.90;;;;;;5100392;28;20563;-67
2022/01/11 00:20:28;;;;;;;37.35;9.68;;;-1.10;99.90;;;;;;5082749;28;20336;-67
2022/01/11 00:25:36;;;;;;;30.60;8.85;;;-1.10;99.90;;;;;;5083856;28;20027;-67
2022/01/11 00:28:05;;;;;;;41.65;9.98;;;-1.20;99.90;;;;;;5100702;28;20103;-68
2022/01/11 00:30:36;;;;;;;34.17;9.65;;;-1.20;99.90;;;;;;5101408;28;20027;-67
2022/01/11 00:33:09;;;;;;;33.50;9.75;;;-1.10;99.90;;;;;;5101861;28;20020;-67
2022/01/11 00:35:43;;;;;;;27.65;8.38;;;-1.10;99.90;;;;;;5101005;28;20074;-67
2022/01/11 00:38:17;;;;;;;34.35;8.50;;;-1.10;99.90;;;;;;5100830;28;20028;-68
2022/01/11 00:40:49;;;;;;;35.17;8.90;;;-1.20;99.90;;;;;;5083204;28;20024;-67
2022/01/11 00:43:18;;;;;;;35.67;9.93;;;-1.20;99.90;;;;;;5100854;28;20028;-67
2022/01/11 00:45:46;;;;;;;29.23;8.15;;;-1.20;99.90;;;;;;5101006;28;20016;-68
2022/01/11 00:48:14;;;;;;;23.08;8.52;;;-1.20;99.90;;;;;;5100418;28;20028;-68
2022/01/11 00:50:42;;;;;;;30.85;9.75;;;-1.20;99.90;;;;;;5100445;28;20024;-68
2022/01/11 00:53:10;;;;;;;31.70;9.85;;;-1.20;99.90;;;;;;5081739;28;20116;-68
2022/01/11 00:55:38;;;;;;;23.55;8.38;;;-1.10;99.90;;;;;;5099895;28;20073;-68
2022/01/11 00:58:06;;;;;;;32.78;9.02;;;-1.10;99.90;;;;;;5100316;28;20024;-68
2022/01/11 01:00:35;;;;;;;26.65;8.77;;;-1.10;99.90;;;;;;5099957;28;20031;-68
2022/01/11 01:03:03;;;;;;;35.47;9.27;;;-1.10;99.90;;;;;;5099653;28;20020;-67
2022/01/11 01:05:31;;;;;;;40.72;8.35;;;-1.10;99.90;;;;;;5081695;28;20052;-68
2022/01/11 01:08:00;;;;;;;29.25;9.25;;;-1.10;99.90;;;;;;5081559;28;20028;-68
2022/01/11 01:10:35;;;;;;;26.85;8.30;;;-1.10;99.90;;;;;;5099881;28;20024;-68
2022/01/11 01:13:11;;;;;;;21.27;7.65;;;-1.10;99.90;;;;;;5100628;28;20085;-67
2022/01/11 01:15:38;;;;;;;27.83;8.35;;;-1.10;99.90;;;;;;5100359;28;20045;-67
2022/01/11 01:18:10;;;;;;;24.45;6.97;;;-1.20;99.90;;;;;;5080587;28;20055;-68
2022/01/11 01:20:38;;;;;;;27.20;7.32;;;-1.20;99.90;;;;;;5079816;28;20056;-68
2022/01/11 01:23:06;;;;;;;22.95;8.27;;;-1.30;99.90;;;;;;5062099;28;20371;-68
2022/01/11 01:25:33;;;;;;;18.52;5.90;;;-1.30;99.90;;;;;;5080477;28;20303;-67
2022/01/11 01:28:00;;;;;;;21.75;6.47;;;-1.40;99.90;;;;;;5079937;28;20107;-67
2022/01/11 01:30:27;;;;;;;22.30;6.75;;;-1.40;99.90;;;;;;5079600;28;20025;-68
2022/01/11 01:32:55;;;;;;;21.88;7.18;;;-1.50;99.90;;;;;;5079091;28;20112;-68
2022/01/11 01:35:25;;;;;;;24.00;6.45;;;-1.50;99.90;;;;;;5044435;28;20017;-68
2022/01/11 01:37:53;;;;;;;21.15;6.10;;;-1.50;99.90;;;;;;5078507;28;20029;-68
2022/01/11 01:40:21;;;;;;;20.20;6.40;;;-1.60;99.90;;;;;;5061159;28;20017;-68
2022/01/11 01:42:51;;;;;;;22.48;6.45;;;-1.60;99.90;;;;;;5078969;28;20035;-68
2022/01/11 01:45:23;;;;;;;18.50;5.75;;;-1.60;99.90;;;;;;5061433;28;20086;-68
2022/01/11 01:47:57;;;;;;;27.33;6.63;;;-1.60;99.90;;;;;;5061558;28;20032;-68
2022/01/11 01:50:26;;;;;;;19.45;5.97;;;-1.70;99.90;;;;;;5078390;28;20043;-68
2022/01/11 01:52:57;;;;;;;16.25;5.80;;;-1.70;99.90;;;;;;5079210;28;20016;-68
2022/01/11 01:55:26;;;;;;;26.30;6.55;;;-1.70;99.90;;;;;;5079435;28;20112;-68
2022/01/11 01:57:53;;;;;;;18.33;6.70;;;-1.70;99.90;;;;;;5079239;28;20436;-67
2022/01/11 02:00:22;;;;;;;19.25;6.10;;;-1.80;99.90;;;;;;5061575;28;20020;-68
2022/01/11 02:02:50;;;;;;;19.92;6.18;;;-1.80;99.90;;;;;;5079229;28;20052;-68
2022/01/11 02:05:17;;;;;;;19.98;6.28;;;-1.80;99.90;;;;;;5079346;28;20036;-68
2022/01/11 02:07:45;;;;;;;20.02;6.28;;;-1.80;99.90;;;;;;5061326;28;20029;-67
2022/01/11 02:10:12;;;;;;;29.75;7.18;;;-1.80;99.90;;;;;;5079093;28;20154;-68
2022/01/11 02:12:40;;;;;;;30.77;7.75;;;-1.80;99.90;;;;;;5044047;28;20025;-68
2022/01/11 02:15:08;;;;;;;29.73;7.18;;;-1.80;99.90;;;;;;5078063;28;20032;-68
2022/01/11 02:17:36;;;;;;;28.30;7.15;;;-1.80;99.90;;;;;;5073410;28;20444;-68
2022/01/11 02:20:04;;;;;;;21.40;6.20;;;-1.80;99.90;;;;;;5077975;28;20024;-68
2022/01/11 02:22:32;;;;;;;21.70;5.47;;;-1.80;99.90;;;;;;5077898;28;20020;-68
2022/01/11 02:25:00;;;;;;;31.02;6.47;;;-1.80;99.90;;;;;;5077794;28;20031;-68
2022/01/11 02:27:30;;;;;;;30.55;8.15;;;-1.80;99.90;;;;;;5078239;28;20317;-68
2022/01/11 02:29:59;;;;;;;27.42;6.75;;;-1.80;99.90;;;;;;5078317;28;20066;-67
2022/01/11 02:32:26;;;;;;;26.38;7.13;;;-1.80;99.90;;;;;;5075937;28;20504;-68
2022/01/11 02:34:53;;;;;;;23.65;7.93;;;-1.90;99.90;;;;;;5078098;28;20025;-68
2022/01/11 02:37:21;;;;;;;22.92;7.43;;;-1.90;99.90;;;;;;5078671;28;20023;-68
2022/01/11 02:39:48;;;;;;;23.27;6.65;;;-1.90;99.90;;;;;;5077465;28;20028;-68
2022/01/11 02:42:15;;;;;;;25.42;6.90;;;-1.90;99.90;;;;;;5077376;28;20073;-67
2022/01/11 02:44:43;;;;;;;19.27;6.60;;;-2.00;99.90;;;;;;5078966;28;20025;-68
2022/01/11 02:47:11;;;;;;;22.67;6.75;;;-2.00;99.90;;;;;;5078384;28;20028;-68
2022/01/11 02:49:38;;;;;;;23.55;8.20;;;-2.00;99.90;;;;;;5078876;28;20023;-68
2022/01/11 02:52:05;;;;;;;21.95;5.32;;;-2.00;99.90;;;;;;5077163;28;20031;-68
2022/01/11 02:54:33;;;;;;;20.95;4.80;;;-2.00;99.90;;;;;;5076390;28;20127;-68
2022/01/11 02:57:00;;;;;;;15.32;4.80;;;-2.00;99.90;;;;;;5076665;28;20412;-68
2022/01/11 02:59:28;;;;;;;17.42;4.95;;;-2.10;99.90;;;;;;5077253;28;20048;-68
2022/01/11 03:01:55;;;;;;;12.10;4.97;;;-2.10;99.90;;;;;;5076232;28;20050;-68
2022/01/11 03:04:28;;;;;;;21.40;5.68;;;-2.10;99.90;;;;;;5077046;28;20032;-67
2022/01/11 03:06:56;;;;;;;23.83;5.57;;;-2.10;99.90;;;;;;5077384;28;20021;-68
2022/01/11 03:09:27;;;;;;;32.88;8.32;;;-2.20;99.90;;;;;;5077254;28;20043;-68
2022/01/11 03:11:56;;;;;;;20.95;8.00;;;-2.20;99.90;;;;;;5077030;28;20020;-68
2022/01/11 03:14:23;;;;;;;28.02;7.30;;;-2.20;99.90;;;;;;5076790;28;20028;-68
2022/01/11 03:16:50;;;;;;;25.95;7.97;;;-2.20;99.90;;;;;;5076408;28;20490;-68
2022/01/11 03:19:18;;;;;;;33.40;7.95;;;-2.20;99.90;;;;;;5078328;28;20024;-67
2022/01/11 03:21:45;;;;;;;23.20;7.60;;;-2.20;99.90;;;;;;5077854;28;20074;-68
2022/01/11 03:24:14;;;;;;;21.17;6.25;;;-2.20;99.90;;;;;;5077747;28;20059;-68
2022/01/11 03:26:41;;;;;;;24.80;7.68;;;-2.30;99.90;;;;;;5078002;28;20025;-68
2022/01/11 03:29:08;;;;;;;29.95;6.70;;;-2.30;99.90;;;;;;5078200;28;20031;-68
2022/01/11 03:31:36;;;;;;;20.98;6.80;;;-2.30;99.90;;;;;;5077864;28;20025;-68
2022/01/11 03:34:04;;;;;;;24.33;6.45;;;-2.30;99.90;;;;;;5077553;28;20138;-67
2022/01/11 03:36:32;;;;;;;27.77;7.68;;;-2.30;99.90;;;;;;5077258;28;20470;-68
2022/01/11 03:38:59;;;;;;;24.52;7.95;;;-2.30;99.90;;;;;;5076601;28;20021;-68
2022/01/11 03:41:26;;;;;;;25.15;6.80;;;-2.30;99.90;;;;;;5077019;28;20411;-67
2022/01/11 03:43:54;;;;;;;24.17;7.63;;;-2.30;99.90;;;;;;5074569;28;20051;-68
2022/01/11 03:46:21;;;;;;;22.65;6.53;;;-2.30;99.90;;;;;;5075499;28;20156;-68
2022/01/11 03:48:48;;;;;;;23.75;6.80;;;-2.30;99.90;;;;;;5076543;28;20031;-68
2022/01/11 03:51:15;;;;;;;27.55;6.30;;;-2.30;99.90;;;;;;5076598;28;20033;-68
2022/01/11 03:54:03;;;;;;;28.85;6.65;;;-2.30;99.90;;;;;;5076862;28;20042;-68
2022/01/11 03:56:31;;;;;;;14.38;4.30;;;-2.30;99.90;;;;;;5076379;28;20025;-68
2022/01/11 03:59:00;;;;;;;11.35;4.13;;;-2.30;99.90;;;;;;5075922;28;20070;-68
2022/01/11 04:01:28;;;;;;;25.63;8.20;;;-2.40;99.90;;;;;;5077802;28;20016;-68
2022/01/11 04:03:55;;;;;;;24.13;7.63;;;-2.40;99.90;;;;;;5076217;28;20111;-68
2022/01/11 04:06:22;;;;;;;22.63;6.13;;;-2.40;99.90;;;;;;5077821;28;20020;-68
2022/01/11 04:08:49;;;;;;;17.60;5.18;;;-2.40;99.90;;;;;;5076138;28;20051;-68
2022/01/11 04:11:16;;;;;;;18.30;5.40;;;-2.50;99.90;;;;;;5077371;28;20017;-68
2022/01/11 04:13:44;;;;;;;18.40;5.50;;;-2.50;99.90;;;;;;5077124;28;20025;-68
2022/01/11 04:16:12;;;;;;;17.50;5.00;;;-2.50;99.90;;;;;;5059437;28;20065;-68
2022/01/11 04:18:39;;;;;;;21.08;4.55;;;-2.50;99.90;;;;;;5075237;28;20021;-68
2022/01/11 04:21:07;;;;;;;11.48;4.20;;;-2.50;99.90;;;;;;5076129;28;20027;-67
2022/01/11 04:23:35;;;;;;;15.75;4.60;;;-2.50;99.90;;;;;;5076117;28;20028;-68
2022/01/11 04:26:02;;;;;;;15.68;4.72;;;-2.50;99.90;;;;;;5075275;28;20033;-68
2022/01/11 04:28:29;;;;;;;19.55;6.22;;;-2.50;99.90;;;;;;5076158;28;20020;-68
2022/01/11 04:31:00;;;;;;;15.23;5.22;;;-2.50;99.90;;;;;;5076231;28;20024;-68
2022/01/11 04:33:28;;;;;;;14.05;4.80;;;-2.50;99.90;;;;;;5075127;28;20455;-68
2022/01/11 04:35:56;;;;;;;16.27;5.50;;;-2.50;99.90;;;;;;5076169;28;20067;-68
2022/01/11 04:38:28;;;;;;;17.92;5.05;;;-2.50;99.90;;;;;;5074886;28;20324;-68
2022/01/11 04:40:55;;;;;;;21.70;4.55;;;-2.50;99.90;;;;;;5077013;28;20024;-68
2022/01/11 04:43:23;;;;;;;17.73;5.55;;;-2.60;99.90;;;;;;5075876;28;20048;-68
2022/01/11 04:45:50;;;;;;;14.73;4.32;;;-2.60;99.90;;;;;;5076076;28;20028;-68
2022/01/11 04:48:18;;;;;;;18.50;4.80;;;-2.60;99.90;;;;;;5076897;28;20035;-68
2022/01/11 04:50:46;;;;;;;21.52;4.45;;;-2.60;99.90;;;;;;5075882;28;20030;-68
2022/01/11 04:53:14;;;;;;;20.70;4.65;;;-2.60;99.90;;;;;;5075648;28;20033;-68
2022/01/11 04:55:41;;;;;;;16.77;4.93;;;-2.60;99.90;;;;;;5079512;28;20353;-68
2022/01/11 04:58:09;;;;;;;13.63;5.18;;;-2.60;99.90;;;;;;5080445;28;20021;-68
2022/01/11 05:00:38;;;;;;;10.48;4.28;;;-2.60;99.90;;;;;;5078850;28;20016;-68
2022/01/11 05:03:05;;;;;;;16.38;4.57;;;-2.70;99.90;;;;;;5079370;28;20033;-68
2022/01/11 05:05:32;;;;;;;14.50;4.65;;;-2.70;99.90;;;;;;5080157;28;20521;-68
2022/01/11 05:08:02;;;;;;;15.45;4.57;;;-2.70;99.90;;;;;;5079245;28;20421;-68
2022/01/11 05:10:30;;;;;;;16.17;6.22;;;-2.70;99.90;;;;;;5079955;28;20415;-68
2022/01/11 05:12:58;;;;;;;13.18;4.85;;;-2.70;99.90;;;;;;5079077;28;20025;-68
2022/01/11 05:15:26;;;;;;;14.85;5.00;;;-2.80;99.90;;;;;;5079787;28;20012;-68
2022/01/11 05:17:53;;;;;;;23.00;5.30;;;-2.80;99.90;;;;;;5097374;28;20047;-68
2022/01/11 05:20:21;;;;;;;18.88;5.65;;;-2.80;99.90;;;;;;5099693;28;20068;-67
2022/01/11 05:22:49;;;;;;;14.77;5.85;;;-2.80;99.90;;;;;;5099865;28;20058;-68
2022/01/11 05:25:16;;;;;;;22.08;4.72;;;-2.80;99.90;;;;;;5100212;28;20020;-68
2022/01/11 05:27:44;;;;;;;11.57;4.82;;;-2.80;99.90;;;;;;5082226;28;20024;-68
2022/01/11 05:30:13;;;;;;;16.38;5.78;;;-2.80;99.90;;;;;;5100078;28;20042;-68
2022/01/11 05:32:42;;;;;;;25.58;5.70;;;-2.90;99.90;;;;;;5081988;28;20156;-68
2022/01/11 05:35:12;;;;;;;19.98;5.65;;;-2.90;99.90;;;;;;5099927;28;20458;-68
2022/01/11 05:37:39;;;;;;;25.08;6.75;;;-2.90;99.90;;;;;;5100136;28;20028;-68
2022/01/11 05:40:08;;;;;;;25.08;5.97;;;-2.90;99.90;;;;;;5082220;28;20324;-68
2022/01/11 05:42:38;;;;;;;19.70;6.32;;;-2.90;99.90;;;;;;5099300;28;20107;-68
2022/01/11 05:45:07;;;;;;;22.00;8.70;;;-2.90;99.90;;;;;;5098787;28;20054;-68
2022/01/11 05:47:35;;;;;;;28.58;6.82;;;-2.90;99.90;;;;;;5098821;28;20028;-68
2022/01/11 05:50:05;;;;;;;21.15;6.00;;;-2.90;99.90;;;;;;5098726;28;20031;-68
2022/01/11 05:52:34;;;;;;;18.20;6.47;;;-2.90;99.90;;;;;;5098772;28;20028;-68
2022/01/11 05:55:03;;;;;;;19.67;5.82;;;-2.90;99.90;;;;;;5098620;28;20021;-68
2022/01/11 05:57:31;;;;;;;19.27;5.95;;;-2.90;99.90;;;;;;5080777;28;20103;-68
2022/01/11 05:59:59;;;;;;;28.13;6.85;;;-2.90;99.90;;;;;;5081427;28;20100;-68
2022/01/11 06:02:26;;;;;;;18.98;6.15;;;-2.90;99.90;;;;;;5081535;28;20408;-68
2022/01/11 06:04:53;;;;;;;23.10;6.32;;;-3.00;99.90;;;;;;5081337;28;20028;-68
2022/01/11 06:07:21;;;;;;;24.00;7.35;;;-2.90;99.90;;;;;;5080455;28;20042;-68
2022/01/11 06:09:48;;;;;;;19.83;7.55;;;-3.00;99.90;;;;;;5081380;28;20020;-68
2022/01/11 06:12:15;;;;;;;35.05;7.10;;;-3.00;99.90;;;;;;5081532;28;20107;-68
2022/01/11 06:14:43;;;;;;;23.70;6.78;;;-3.00;99.90;;;;;;5099691;28;20024;-68
2022/01/11 06:17:10;;;;;;;19.60;7.15;;;-3.00;99.90;;;;;;5099193;28;20036;-68
2022/01/11 06:19:38;;;;;;;18.55;8.30;;;-3.10;99.90;;;;;;5099733;28;20019;-68
2022/01/11 06:22:05;;;;;;;25.65;7.80;;;-3.10;99.90;;;;;;5081257;28;20087;-68
2022/01/11 06:24:32;;;;;;;16.25;7.00;;;-3.10;99.90;;;;;;5098624;28;20055;-68
2022/01/11 06:27:00;;;;;;;22.45;8.15;;;-3.10;99.90;;;;;;5098558;28;20016;-68
2022/01/11 06:29:27;;;;;;;16.70;6.40;;;-3.10;99.90;;;;;;5080738;28;20024;-68
2022/01/11 06:31:54;;;;;;;17.95;7.13;;;-3.10;99.90;;;;;;5080278;28;20020;-68
2022/01/11 06:34:21;;;;;;;22.98;8.00;;;-3.10;99.90;;;;;;5097889;28;20048;-68
2022/01/11 06:36:48;;;;;;;22.38;7.60;;;-3.10;99.90;;;;;;5080635;28;20020;-68
2022/01/11 06:39:15;;;;;;;27.15;9.25;;;-3.10;99.90;;;;;;5097896;28;20031;-68
2022/01/11 06:41:43;;;;;;;22.60;7.60;;;-3.10;99.90;;;;;;5097851;28;20024;-68
2022/01/11 06:44:11;;;;;;;30.05;7.90;;;-3.20;99.90;;;;;;5097986;28;20102;-68
2022/01/11 06:46:38;;;;;;;18.60;7.00;;;-3.20;99.90;;;;;;5080335;28;20051;-68
2022/01/11 06:49:05;;;;;;;18.48;6.57;;;-3.20;99.90;;;;;;5098917;28;20077;-68
2022/01/11 06:51:33;;;;;;;21.77;7.30;;;-3.20;99.90;;;;;;5099126;28;20103;-68
2022/01/11 06:54:00;;;;;;;21.02;7.50;;;-3.20;99.90;;;;;;5080395;28;20028;-68
2022/01/11 06:56:28;;;;;;;23.02;7.95;;;-3.20;99.90;;;;;;5098573;28;20043;-68
2022/01/11 06:58:55;;;;;;;23.35;7.85;;;-3.30;99.90;;;;;;5098399;28;20020;-68
2022/01/11 07:01:23;;;;;;;19.55;7.10;;;-3.30;99.90;;;;;;5098418;28;20412;-68
2022/01/11 07:03:50;;;;;;;22.88;7.40;;;-3.30;99.90;;;;;;5098629;28;20024;-68
2022/01/11 07:06:17;;;;;;;19.77;8.18;;;-3.30;99.90;;;;;;5098015;28;20051;-70
2022/01/11 07:08:45;;;;;;;20.75;7.22;;;-3.30;99.90;;;;;;5097150;28;20022;-70
2022/01/11 07:11:13;;;;;;;23.15;7.70;;;-3.30;99.90;;;;;;5097698;28;20031;-70
2022/01/11 07:13:41;;;;;;;30.08;9.70;;;-3.30;99.90;;;;;;5097645;28;20289;-71
2022/01/11 07:16:08;;;;;;;32.70;13.73;;;-3.30;99.90;;;;;;5097424;28;20116;-70
2022/01/11 07:18:36;;;;;;;24.77;9.05;;;-3.30;99.90;;;;;;5079040;28;20036;-70
2022/01/11 07:21:03;;;;;;;23.35;7.53;;;-3.30;99.90;;;;;;5079120;28;20024;-71
2022/01/11 07:23:31;;;;;;;22.58;8.85;;;-3.30;99.90;;;;;;5097133;28;20089;-71
2022/01/11 07:25:58;;;;;;;17.50;7.03;;;-3.30;99.90;;;;;;5079224;28;20323;-71
2022/01/11 07:28:27;;;;;;;22.90;7.53;;;-3.30;99.90;;;;;;5078989;28;20062;-71
2022/01/11 07:30:55;;;;;;;25.15;8.25;;;-3.30;99.90;;;;;;5097783;28;20179;-71
2022/01/11 07:33:22;;;;;;;24.23;8.27;;;-3.40;99.90;;;;;;5097582;28;20028;-75
2022/01/11 07:35:50;;;;;;;19.95;8.20;;;-3.30;99.90;;;;;;5080003;28;20021;-72
2022/01/11 07:38:17;;;;;;;22.40;7.57;;;-3.40;99.90;;;;;;5079605;28;20061;-69
2022/01/11 07:40:45;;;;;;;26.90;7.18;;;-3.40;99.90;;;;;;5097659;28;20020;-73
2022/01/11 07:43:12;;;;;;;17.63;8.48;;;-3.30;99.90;;;;;;5079740;28;20089;-73
2022/01/11 07:45:40;;;;;;;20.33;7.90;;;-3.40;99.90;;;;;;5080227;28;20319;-73
2022/01/11 07:48:08;;;;;;;20.20;8.18;;;-3.40;99.90;;;;;;5098107;28;20067;-71
2022/01/11 07:50:35;;;;;;;28.45;9.90;;;-3.40;99.90;;;;;;5096800;28;20030;-73
2022/01/11 07:53:05;;;;;;;46.05;16.05;;;-3.40;99.90;;;;;;5078557;28;20440;-73
2022/01/11 07:55:34;;;;;;;42.65;17.65;;;-3.30;99.90;;;;;;5096668;28;20030;-74
2022/01/11 07:58:01;;;;;;;30.00;14.30;;;-3.40;99.90;;;;;;5097151;28;20016;-72
2022/01/11 08:00:31;;;;;;;30.52;12.70;;;-3.30;99.90;;;;;;5096576;28;20016;-70
2022/01/11 08:03:00;;;;;;;28.98;11.35;;;-3.30;99.90;;;;;;5096428;28;20118;-71
2022/01/11 08:05:27;;;;;;;30.50;13.23;;;-3.30;99.90;;;;;;5078829;28;20039;-71
2022/01/11 08:07:55;;;;;;;43.28;14.15;;;-3.30;99.90;;;;;;5096969;28;20082;-69
2022/01/11 08:10:22;;;;;;;32.90;11.93;;;-3.30;99.90;;;;;;5096548;28;20020;-72
2022/01/11 08:12:50;;;;;;;33.53;13.00;;;-3.20;99.90;;;;;;5097414;28;20051;-71
2022/01/11 08:15:17;;;;;;;31.10;12.13;;;-3.20;99.90;;;;;;5097516;28;20016;-70
2022/01/11 08:17:46;;;;;;;25.25;10.18;;;-3.20;99.90;;;;;;5097133;28;20048;-71
2022/01/11 08:20:14;;;;;;;27.70;10.88;;;-3.10;99.90;;;;;;5097329;28;20070;-70
2022/01/11 08:22:42;;;;;;;32.72;10.77;;;-3.10;99.90;;;;;;5097600;28;20014;-68
2022/01/11 08:25:09;;;;;;;21.98;9.05;;;-3.10;99.90;;;;;;5097470;28;20107;-69
2022/01/11 08:27:37;;;;;;;23.17;7.28;;;-3.10;99.90;;;;;;5097193;28;20073;-69
2022/01/11 08:30:06;;;;;;;20.08;7.97;;;-3.10;99.90;;;;;;5099439;28;20019;-68
2022/01/11 08:32:33;;;;;;;32.35;11.93;;;-3.00;99.90;;;;;;5100368;28;20416;-73
2022/01/11 08:35:00;;;;;;;30.48;11.70;;;-3.00;99.90;;;;;;5100191;28;20036;-70
2022/01/11 08:37:27;;;;;;;28.38;11.88;;;-3.00;99.90;;;;;;5100207;28;20020;-70
2022/01/11 08:39:55;;;;;;;30.25;13.50;;;-3.00;99.90;;;;;;5100114;28;20158;-70
2022/01/11 08:42:23;;;;;;;38.50;18.35;;;-2.90;99.90;;;;;;5100478;28;20118;-68
2022/01/11 08:44:50;;;;;;;46.08;19.30;;;-2.90;99.90;;;;;;5100916;28;20426;-68
2022/01/11 08:47:18;;;;;;;37.60;15.88;;;-2.90;99.90;;;;;;5100616;28;20020;-68
2022/01/11 08:49:46;;;;;;;29.70;11.98;;;-2.90;99.90;;;;;;5081963;28;20030;-67
2022/01/11 08:52:14;;;;;;;57.65;22.27;;;-2.90;99.90;;;;;;5082410;28;20020;-68
2022/01/11 08:54:41;;;;;;;41.70;15.07;;;-2.90;99.90;;;;;;5100748;28;20056;-68
2022/01/11 08:57:09;;;;;;;33.08;16.02;;;-2.80;99.90;;;;;;5101343;28;20085;-67
2022/01/11 08:59:36;;;;;;;35.08;14.55;;;-2.70;99.90;;;;;;5101414;28;20024;-68
2022/01/11 09:02:04;;;;;;;28.50;12.00;;;-2.70;99.90;;;;;;5082923;28;20031;-67
2022/01/11 09:04:33;;;;;;;31.08;13.57;;;-2.70;99.90;;;;;;5100556;28;20428;-67
2022/01/11 09:07:00;;;;;;;30.65;13.88;;;-2.60;99.90;;;;;;5101047;28;20024;-67
2022/01/11 09:09:31;;;;;;;29.88;10.45;;;-2.60;99.90;;;;;;5066039;28;20027;-67
2022/01/11 09:12:08;;;;;;;33.05;12.70;;;-2.50;99.90;;;;;;5100440;28;20328;-67
2022/01/11 09:14:38;;;;;;;32.80;10.85;;;-2.50;99.90;;;;;;5099247;28;20060;-67
2022/01/11 09:17:05;;;;;;;32.30;11.85;;;-2.40;99.90;;;;;;5099224;28;20044;-67
2022/01/11 09:19:33;;;;;;;32.30;12.35;;;-2.40;99.90;;;;;;5099356;28;20024;-67
2022/01/11 09:22:01;;;;;;;32.08;11.40;;;-2.30;99.90;;;;;;5099758;28;20436;-67
2022/01/11 09:24:32;;;;;;;22.73;9.77;;;-2.30;99.90;;;;;;5081294;28;20541;-67
2022/01/11 09:27:04;;;;;;;28.85;11.02;;;-2.20;99.90;;;;;;5099509;28;20320;-66
2022/01/11 09:29:32;;;;;;;26.00;8.73;;;-2.10;99.90;;;;;;5099355;28;20020;-70
2022/01/11 09:32:01;;;;;;;27.75;9.82;;;-2.10;99.90;;;;;;5099291;28;20427;-67
2022/01/11 09:34:29;;;;;;;21.05;7.85;;;-2.00;99.90;;;;;;5098966;28;20421;-68
2022/01/11 09:36:56;;;;;;;24.83;9.68;;;-1.90;99.90;;;;;;5081904;28;20050;-67
2022/01/11 09:39:23;;;;;;;31.90;12.00;;;-1.80;99.90;;;;;;5065722;28;20030;-69
2022/01/11 09:41:51;;;;;;;27.85;12.02;;;-1.70;99.90;;;;;;5100371;28;20024;-67
2022/01/11 09:44:20;;;;;;;26.92;11.82;;;-1.60;99.90;;;;;;5099814;28;20047;-67
2022/01/11 09:46:48;;;;;;;23.50;11.20;;;-1.60;99.90;;;;;;5099730;28;20313;-67
2022/01/11 09:49:15;;;;;;;18.90;9.02;;;-1.60;99.90;;;;;;5081757;28;20024;-67
2022/01/11 09:51:43;;;;;;;44.80;9.65;;;-1.60;99.90;;;;;;5099840;28;20032;-68
2022/01/11 09:54:12;;;;;;;17.58;7.72;;;-1.60;99.90;;;;;;5099608;28;20055;-69
2022/01/11 09:56:39;;;;;;;13.18;6.75;;;-1.60;99.90;;;;;;5099386;28;20020;-70
2022/01/11 09:59:06;;;;;;;13.43;7.00;;;-1.60;99.90;;;;;;5098514;28;20020;-71
2022/01/11 10:01:36;;;;;;;13.00;6.18;;;-1.60;99.90;;;;;;5098602;28;20104;-69
2022/01/11 10:04:10;;;;;;;13.93;6.50;;;-1.60;99.90;;;;;;5098490;28;20028;-69
2022/01/11 10:06:42;;;;;;;14.98;6.60;;;-1.60;99.90;;;;;;5098634;28;20077;-70
2022/01/11 10:09:29;;;;;;;13.65;6.30;;;-1.60;99.90;;;;;;5098600;28;20031;-68
2022/01/11 10:12:02;;;;;;;13.55;6.72;;;-1.60;99.90;;;;;;5098704;28;20323;-67
2022/01/11 10:14:35;;;;;;;15.23;7.30;;;-1.50;99.90;;;;;;5098235;28;20046;-67
2022/01/11 10:17:11;;;;;;;13.65;6.28;;;-1.50;99.90;;;;;;5098876;28;20063;-67
2022/01/11 10:19:41;;;;;;;14.93;8.02;;;-1.50;99.90;;;;;;5099243;28;20431;-67
2022/01/11 10:22:12;;;;;;;13.07;7.57;;;-1.40;99.90;;;;;;5099281;28;20032;-69
2022/01/11 10:24:44;;;;;;;20.98;8.30;;;-1.40;99.90;;;;;;5099243;28;20049;-67
2022/01/11 10:27:22;;;;;;;13.63;7.55;;;-1.40;99.90;;;;;;5081258;28;20055;-67
2022/01/11 10:29:52;;;;;;;15.57;7.30;;;-1.40;99.90;;;;;;5098850;28;20028;-67
2022/01/11 10:32:23;;;;;;;12.93;6.70;;;-1.30;99.90;;;;;;5099233;28;20034;-67
2022/01/11 10:34:54;;;;;;;14.52;8.05;;;-1.30;99.90;;;;;;5098717;28;20035;-67
2022/01/11 10:37:35;;;;;;;14.48;7.75;;;-1.30;99.90;;;;;;5098326;28;20142;-67
2022/01/11 10:40:10;;;;;;;13.82;7.15;;;-1.30;99.90;;;;;;5098326;28;20051;-68
2022/01/11 10:42:44;;;;;;;25.05;13.50;;;-1.20;99.90;;;;;;5097747;28;20052;-68
2022/01/11 10:45:19;;;;;;;19.65;11.07;;;-1.20;99.90;;;;;;5097905;28;20044;-68
2022/01/11 10:47:51;;;;;;;14.90;8.95;;;-1.20;99.90;;;;;;5097873;28;20032;-67
2022/01/11 10:50:27;;;;;;;17.75;9.13;;;-1.20;99.90;;;;;;5097574;28;20153;-68
2022/01/11 10:53:00;;;;;;;15.85;8.07;;;-1.20;99.90;;;;;;5097431;28;20031;-67
2022/01/11 10:55:30;;;;;;;16.27;8.00;;;-1.20;99.90;;;;;;5097507;28;20098;-67
2022/01/11 10:57:59;;;;;;;19.13;8.90;;;-1.10;99.90;;;;;;5097426;28;20024;-67
2022/01/11 11:00:41;;;;;;;21.60;8.45;;;-1.00;99.90;;;;;;5098196;28;20416;-68
2022/01/11 11:03:12;;;;;;;13.18;7.68;;;-1.00;99.90;;;;;;5098913;28;20028;-67
2022/01/11 11:05:46;;;;;;;13.35;6.80;;;-1.00;99.90;;;;;;5098275;28;20039;-67
2022/01/11 11:08:20;;;;;;;15.10;7.30;;;-1.00;99.90;;;;;;5098160;28;20097;-68
2022/01/11 11:10:58;;;;;;;14.35;7.65;;;-0.90;99.90;;;;;;5098162;28;20434;-68
2022/01/11 11:13:26;;;;;;;15.50;8.13;;;-0.90;99.90;;;;;;5080044;28;20362;-67
2022/01/11 11:16:05;;;;;;;17.38;8.55;;;-0.90;99.90;;;;;;5098074;28;20027;-68
2022/01/11 11:18:38;;;;;;;20.67;8.55;;;-0.80;99.90;;;;;;5098187;28;20038;-67
2022/01/11 11:21:25;;;;;;;16.13;8.23;;;-0.70;99.90;;;;;;5079097;28;20070;-67
2022/01/11 11:23:56;;;;;;;17.05;8.48;;;-0.70;99.90;;;;;;5097107;28;20027;-67
2022/01/11 11:26:29;;;;;;;24.70;10.02;;;-0.60;99.90;;;;;;5097001;28;20051;-68
2022/01/11 11:28:57;;;;;;;20.08;10.02;;;-0.60;99.90;;;;;;5096924;28;20032;-68
2022/01/11 11:31:25;;;;;;;18.63;9.18;;;-0.60;99.90;;;;;;5097106;28;20030;-68
2022/01/11 11:33:52;;;;;;;18.65;9.18;;;-0.50;99.90;;;;;;5079526;28;20052;-75
2022/01/11 11:36:20;;;;;;;22.80;11.43;;;-0.50;99.90;;;;;;5079130;28;20031;-67
2022/01/11 11:39:11;;;;;;;21.48;11.63;;;-0.40;99.90;;;;;;5097067;28;20069;-67
2022/01/11 11:41:42;;;;;;;21.83;10.55;;;-0.40;99.90;;;;;;5097349;28;20099;-71
2022/01/11 11:44:13;;;;;;;23.58;10.55;;;-0.40;99.90;;;;;;5079725;28;20047;-67
2022/01/11 11:46:51;;;;;;;20.45;9.98;;;-0.30;99.90;;;;;;5097729;28;20020;-67
2022/01/11 11:49:46;;;;;;;21.55;11.68;;;-0.30;99.90;;;;;;5079719;28;20336;-66
2022/01/11 11:52:24;;;;;;;20.50;10.55;;;-0.20;99.90;;;;;;5097723;28;20362;-66
2022/01/11 11:55:02;;;;;;;20.05;10.18;;;-0.20;99.90;;;;;;5098031;28;20031;-67
2022/01/11 11:57:33;;;;;;;20.40;11.02;;;-0.10;99.90;;;;;;5097545;28;20070;-68
2022/01/11 12:00:05;;;;;;;19.20;9.80;;;-0.10;99.90;;;;;;5097486;28;20480;-66
2022/01/11 12:02:39;;;;;;;19.50;9.80;;;0.00;99.90;;;;;;5096800;28;20420;-69
2022/01/11 12:05:10;;;;;;;20.58;10.25;;;0.00;99.90;;;;;;5098275;28;20031;-73
2022/01/11 12:07:42;;;;;;;19.45;10.57;;;0.00;99.90;;;;;;5100692;28;20034;-66
2022/01/11 12:10:26;;;;;;;16.45;8.95;;;0.00;99.90;;;;;;5100448;28;20032;-68
2022/01/11 12:12:55;;;;;;;20.13;8.75;;;0.10;99.90;;;;;;5100853;28;20063;-69
2022/01/11 12:15:22;;;;;;;22.55;9.50;;;0.10;99.90;;;;;;5100826;28;20335;-69
2022/01/11 12:18:10;;;;;;;16.23;9.48;;;0.10;99.90;;;;;;5100480;28;20109;-68
2022/01/11 12:20:58;;;;;;;18.42;8.52;;;0.20;99.90;;;;;;5101183;28;20048;-67
2022/01/11 12:23:35;;;;;;;18.67;8.57;;;0.20;99.90;;;;;;5082887;28;20046;-68
2022/01/11 12:26:20;;;;;;;16.58;8.27;;;0.30;99.90;;;;;;5102014;28;20058;-68
2022/01/11 12:29:12;;;;;;;20.25;9.65;;;0.30;99.90;;;;;;5083336;28;20424;-68
2022/01/11 12:31:57;;;;;;;23.23;10.05;;;0.30;99.90;;;;;;5101747;28;20024;-70
2022/01/11 12:34:47;;;;;;;21.48;9.48;;;0.30;99.90;;;;;;5101124;28;20170;-68
2022/01/11 12:37:44;;;;;;;21.02;11.48;;;0.30;99.90;;;;;;5101100;28;20066;-70
2022/01/11 12:40:38;;;;;;;28.33;13.80;;;0.40;99.90;;;;;;5100979;28;20470;-66
2022/01/11 12:43:21;;;;;;;20.98;11.32;;;0.40;99.90;;;;;;5100153;28;20085;-68
2022/01/11 12:45:59;;;;;;;23.58;11.25;;;0.40;99.90;;;;;;5100074;28;20031;-68
2022/01/11 12:48:45;;;;;;;18.00;9.35;;;0.50;99.90;;;;;;5100712;28;20077;-68
2022/01/11 12:51:27;;;;;;;16.90;7.83;;;0.50;99.90;;;;;;5100584;28;20403;-70